createdAt,value
2023-03-19T00:04:54.184Z,22.23
2023-03-19T00:09:55.598Z,22.26
2023-03-19T00:14:56.985Z,22.27
2023-03-19T00:19:58.370Z,22.24
2023-03-19T00:24:59.805Z,22.20
2023-03-19T00:30:02.432Z,22.24
2023-03-19T00:35:06.198Z,22.26
2023-03-19T00:40:08.396Z,22.29
2023-03-19T00:45:10.697Z,22.27
2023-03-19T00:50:12.231Z,22.23
2023-03-19T00:55:14.018Z,22.19
2023-03-19T01:00:18.883Z,22.26
2023-03-19T01:05:20.264Z,22.29
2023-03-19T01:10:22.594Z,22.26
2023-03-19T01:15:24.002Z,22.17
2023-03-19T01:20:25.387Z,22.15
2023-03-19T01:25:26.935Z,22.20
2023-03-19T01:30:28.367Z,22.26
2023-03-19T01:35:30.120Z,22.29
2023-03-19T01:40:32.753Z,22.24
2023-03-19T01:45:36.339Z,22.21
2023-03-19T01:50:41.881Z,22.20
2023-03-19T01:55:43.282Z,22.25
2023-03-19T02:00:44.721Z,22.26
2023-03-19T02:05:46.431Z,22.27
2023-03-19T02:10:48.094Z,22.20
2023-03-19T02:15:50.803Z,22.19
2023-03-19T02:20:59.296Z,22.22
2023-03-19T02:26:02.488Z,22.29
2023-03-19T02:31:03.918Z,22.26
2023-03-19T02:36:06.967Z,22.19
2023-03-19T02:41:08.485Z,22.20
2023-03-19T02:46:12.037Z,22.24
2023-03-19T02:51:13.560Z,22.26
2023-03-19T02:56:15.258Z,22.26
2023-03-19T03:01:17.561Z,22.17
2023-03-19T03:06:19.023Z,22.18
2023-03-19T03:11:20.398Z,22.22
2023-03-19T03:16:22.629Z,22.24
2023-03-19T03:21:24.072Z,22.27
2023-03-19T03:26:25.512Z,22.24
2023-03-19T03:31:27.004Z,22.15
2023-03-19T03:36:28.718Z,22.25
2023-03-19T03:41:30.204Z,22.31
2023-03-19T03:46:31.605Z,22.32
2023-03-19T03:51:33.007Z,22.25
2023-03-19T03:56:34.467Z,22.20
2023-03-19T04:01:36.131Z,22.20
2023-03-19T04:06:37.500Z,22.30
2023-03-19T04:11:39.505Z,22.28
2023-03-19T04:16:41.194Z,22.28
2023-03-19T04:21:42.772Z,22.22
2023-03-19T04:26:44.232Z,22.20
2023-03-19T04:31:45.780Z,22.28
2023-03-19T04:36:47.228Z,22.29
2023-03-19T04:41:48.982Z,22.21
2023-03-19T04:46:50.465Z,22.18
2023-03-19T04:51:51.830Z,22.23
2023-03-19T04:56:53.529Z,22.25
2023-03-19T05:01:54.934Z,22.33
2023-03-19T05:06:57.255Z,22.29
2023-03-19T05:11:58.641Z,22.23
2023-03-19T05:17:00.499Z,22.23
2023-03-19T05:22:01.889Z,22.25
2023-03-19T05:27:03.374Z,22.28
2023-03-19T05:32:05.057Z,22.26
2023-03-19T05:37:06.440Z,22.23
2023-03-19T05:42:07.845Z,22.24
2023-03-19T05:47:10.785Z,22.27
2023-03-19T05:52:12.267Z,22.32
2023-03-19T05:57:14.071Z,22.30
2023-03-19T06:02:15.787Z,22.28
2023-03-19T06:07:17.184Z,22.25
2023-03-19T06:12:18.638Z,22.27
2023-03-19T06:17:21.255Z,22.33
2023-03-19T06:22:22.642Z,22.30
2023-03-19T06:27:24.038Z,22.25
2023-03-19T06:32:25.583Z,22.22
2023-03-19T06:37:26.953Z,22.28
2023-03-19T06:42:28.352Z,22.32
2023-03-19T06:47:29.765Z,22.32
2023-03-19T06:52:31.225Z,22.23
2023-03-19T06:57:32.650Z,22.28
2023-03-19T07:02:34.083Z,22.28
2023-03-19T07:07:35.683Z,22.33
2023-03-19T07:12:37.267Z,22.33
2023-03-19T07:17:38.653Z,22.30
2023-03-19T07:22:40.342Z,22.25
2023-03-19T07:27:41.761Z,22.28
2023-03-19T07:32:43.791Z,22.34
2023-03-19T07:37:45.274Z,22.36
2023-03-19T07:42:46.683Z,22.33
2023-03-19T07:47:50.447Z,22.24
2023-03-19T07:52:51.939Z,22.29
2023-03-19T07:57:53.330Z,22.35
2023-03-19T08:02:54.728Z,22.39
2023-03-19T08:07:56.131Z,22.35
2023-03-19T08:12:57.603Z,22.30
2023-03-19T08:18:03.642Z,22.28
2023-03-19T08:23:05.086Z,22.35
2023-03-19T08:28:07.075Z,22.42
2023-03-19T08:33:08.704Z,22.39
2023-03-19T08:38:10.994Z,22.34
2023-03-19T08:43:12.399Z,22.30
2023-03-19T08:48:13.791Z,22.31
2023-03-19T08:53:15.361Z,22.38
2023-03-19T08:58:16.754Z,22.43
2023-03-19T09:03:18.175Z,22.41
2023-03-19T09:08:19.559Z,22.38
2023-03-19T09:13:21.008Z,22.29
2023-03-19T09:18:25.255Z,22.34
2023-03-19T09:23:26.707Z,22.43
2023-03-19T09:28:28.129Z,22.44
2023-03-19T09:33:29.508Z,22.41
2023-03-19T09:38:31.085Z,22.37
2023-03-19T09:43:59.284Z,22.32
2023-03-19T09:49:22.356Z,22.34
2023-03-19T09:54:36.497Z,22.42
2023-03-19T09:59:37.894Z,22.44
2023-03-19T10:04:42.539Z,22.44
2023-03-19T10:09:46.650Z,22.37
2023-03-19T10:15:04.251Z,22.37
2023-03-19T10:20:45.193Z,22.40
2023-03-19T10:25:46.694Z,22.40
2023-03-19T10:30:57.740Z,22.44
2023-03-19T10:36:05.577Z,22.45
2023-03-19T10:41:28.206Z,22.42
2023-03-19T10:46:39.371Z,22.38
2023-03-19T10:51:43.683Z,22.39
2023-03-19T10:56:46.118Z,22.41
2023-03-19T11:01:47.506Z,22.44
2023-03-19T11:06:50.054Z,22.46
2023-03-19T11:11:53.962Z,22.46
2023-03-19T11:16:57.346Z,22.45
2023-03-19T11:22:05.341Z,22.43
2023-03-19T11:27:07.448Z,22.38
2023-03-19T11:32:22.058Z,22.38
2023-03-19T11:37:54.817Z,22.44
2023-03-19T11:43:25.369Z,22.46
2023-03-19T11:48:32.435Z,22.46
2023-03-19T11:54:11.639Z,22.43
2023-03-19T11:59:28.426Z,22.46
2023-03-19T12:04:54.015Z,22.40
2023-03-19T12:09:57.107Z,22.37
2023-03-19T12:15:23.438Z,22.43
2023-03-19T12:21:15.513Z,22.48
2023-03-19T12:26:40.323Z,22.47
2023-03-19T12:31:51.304Z,22.47
2023-03-19T12:37:06.947Z,22.44
2023-03-19T12:42:08.378Z,22.39
2023-03-19T12:47:13.026Z,22.42
2023-03-19T12:52:26.607Z,22.36
2023-03-19T12:57:37.934Z,22.40
2023-03-19T13:02:50.264Z,22.44
2023-03-19T13:08:11.839Z,22.44
2023-03-19T13:13:28.596Z,22.47
2023-03-19T13:18:44.199Z,22.40
2023-03-19T13:23:45.637Z,22.38
2023-03-19T13:29:01.448Z,22.39
2023-03-19T13:34:05.047Z,22.37
2023-03-19T13:39:13.270Z,22.38
2023-03-19T13:44:40.648Z,22.41
2023-03-19T13:50:05.505Z,22.46
2023-03-19T13:55:25.484Z,22.44
2023-03-19T14:00:47.024Z,22.39
2023-03-19T14:05:48.803Z,22.41
2023-03-19T14:10:57.872Z,22.36
2023-03-19T14:16:15.960Z,22.36
2023-03-19T14:21:38.785Z,22.34
2023-03-19T14:26:41.973Z,22.35
2023-03-19T14:31:53.815Z,22.41
2023-03-19T14:37:17.207Z,22.40
2023-03-19T14:42:50.257Z,22.39
2023-03-19T14:48:22.953Z,22.37
2023-03-19T14:53:27.231Z,22.29
2023-03-19T14:58:28.610Z,22.30
2023-03-19T15:03:39.346Z,22.32
2023-03-19T15:08:40.790Z,22.36
2023-03-19T15:13:58.475Z,22.40
2023-03-19T15:18:59.869Z,22.40
2023-03-19T15:24:01.251Z,22.41
2023-03-19T15:29:04.231Z,22.32
2023-03-19T15:34:22.573Z,22.29
2023-03-19T15:39:24.868Z,22.28
2023-03-19T15:44:31.503Z,22.32
2023-03-19T15:49:36.472Z,22.35
2023-03-19T15:54:37.880Z,22.39
2023-03-19T15:59:39.280Z,22.41
2023-03-19T16:05:06.714Z,22.42
2023-03-19T16:10:40.141Z,22.37
2023-03-19T16:15:45.718Z,22.33
2023-03-19T16:21:09.208Z,22.30
2023-03-19T16:26:19.277Z,22.33
2023-03-19T16:31:22.808Z,22.38
2023-03-19T16:36:26.785Z,22.42
2023-03-19T16:41:34.063Z,22.40
2023-03-19T16:46:35.475Z,22.38
2023-03-19T16:51:36.896Z,22.35
2023-03-19T16:56:38.305Z,22.35
2023-03-19T17:01:39.727Z,22.36
2023-03-19T17:06:41.115Z,22.36
2023-03-19T17:11:42.830Z,22.40
2023-03-19T17:16:48.336Z,22.40
2023-03-19T17:21:52.295Z,22.34
2023-03-19T17:26:54.008Z,22.31
2023-03-19T17:31:55.832Z,22.28
2023-03-19T17:36:59.339Z,22.28
2023-03-19T17:42:00.794Z,22.33
2023-03-19T17:47:02.210Z,22.33
2023-03-19T17:52:03.684Z,22.33
2023-03-19T17:57:05.229Z,22.32
2023-03-19T18:02:27.420Z,22.27
2023-03-19T18:07:28.801Z,22.25
2023-03-19T18:12:30.246Z,22.30
2023-03-19T18:17:31.662Z,22.38
2023-03-19T18:22:33.054Z,22.32
2023-03-19T18:27:34.552Z,22.29
2023-03-19T18:32:36.048Z,22.24
2023-03-19T18:37:37.462Z,22.27
2023-03-19T18:42:38.837Z,22.32
2023-03-19T18:47:40.679Z,22.32
2023-03-19T18:52:42.563Z,22.33
2023-03-19T18:57:53.463Z,22.29
2023-03-19T19:02:55.459Z,22.23
2023-03-19T19:07:57.646Z,22.28
2023-03-19T19:12:59.045Z,22.30
2023-03-19T19:18:00.678Z,22.32
2023-03-19T19:23:02.561Z,22.31
2023-03-19T19:28:14.380Z,22.25
2023-03-19T19:33:19.616Z,22.24
2023-03-19T19:38:21.011Z,22.22
2023-03-19T19:43:24.141Z,22.27
2023-03-19T19:48:27.257Z,22.31
2023-03-19T19:53:29.580Z,22.28
2023-03-19T19:58:31.885Z,22.26
2023-03-19T20:03:33.489Z,22.23
2023-03-19T20:08:35.141Z,22.22
2023-03-19T20:13:37.643Z,22.29
2023-03-19T20:18:43.284Z,22.31
2023-03-19T20:23:44.870Z,22.30
2023-03-19T20:28:46.356Z,22.28
2023-03-19T20:33:47.727Z,22.20
2023-03-19T20:38:49.176Z,22.27
2023-03-19T20:43:50.758Z,22.32
2023-03-19T20:48:52.176Z,22.32
2023-03-19T20:53:53.607Z,22.26
2023-03-19T20:58:55.142Z,22.24
2023-03-19T21:03:57.044Z,22.24
2023-03-19T21:09:00.176Z,22.24
2023-03-19T21:14:01.877Z,22.31
2023-03-19T21:19:03.322Z,22.31
2023-03-19T21:24:15.410Z,22.29
2023-03-19T21:29:22.891Z,22.23
2023-03-19T21:34:24.298Z,22.21
2023-03-19T21:39:25.681Z,22.23
2023-03-19T21:44:29.507Z,22.26
2023-03-19T21:49:31.050Z,22.29
2023-03-19T21:54:32.439Z,22.26
2023-03-19T21:59:33.871Z,22.23
2023-03-19T22:04:35.314Z,22.23
2023-03-19T22:09:37.216Z,22.21
2023-03-19T22:14:40.059Z,22.28
2023-03-19T22:19:41.923Z,22.28
2023-03-19T22:24:43.356Z,22.26
2023-03-19T22:29:45.060Z,22.24
2023-03-19T22:34:46.431Z,22.18
2023-03-19T22:39:47.806Z,22.24
2023-03-19T22:44:49.192Z,22.27
2023-03-19T22:49:50.996Z,22.29
2023-03-19T22:54:53.586Z,22.26
2023-03-19T22:59:54.981Z,22.20
2023-03-19T23:04:56.349Z,22.19
2023-03-19T23:09:57.726Z,22.23
2023-03-19T23:14:59.095Z,22.28
2023-03-19T23:20:01.013Z,22.28
2023-03-19T23:25:02.457Z,22.24
2023-03-19T23:30:04.613Z,22.22
2023-03-19T23:35:15.519Z,22.24
2023-03-19T23:40:17.817Z,22.26
2023-03-19T23:45:31.266Z,22.28
2023-03-19T23:50:32.856Z,22.30
2023-03-19T23:55:34.528Z,22.26
